Wabasha, Minnesota
Current Conditions -  °F | °C
As of 4:11 AM on Saturday 22 Nov 2014 (Local Time) from KRGK Reporting Station
Haze Haze  
Wind Chill: 36°   Ceiling: NA
Heat Index: 36°   Visibility: 4mi
Dew Point: 32°   Wind: 3mph
Humidity: 87%   Direction: 200°SSW
Pressure: 29.84"   Gusts: NA
Location:  44.38°N, 92.04°W
Report Text: KRGK 221011Z AUTO 20003KT 4SM BR 02/00 A2984 RMK AO2
Loading
Personal Weather Stations






























Interactive Weather Map New forecast layout! Learn more

10-Day Weather Forecast

Advertisements
Track Severe Weather on mobile